Time,TemperatureF,DewpointF,PressureIn,WindDirection,WindDirectionDegrees,WindSpeedMPH,WindSpeedGustMPH,Humidity,HourlyPrecipIn,Conditions,Clouds,dailyrainin,SoftwareType,DateUTC
2013-07-22 00:00:00,65.5,63.1,29.76,SE,126,0.0,1.0,92,0.00,,---,0.00,VWS V14.00,2013-07-22 05:00:00,
2013-07-22 00:01:00,65.5,63.1,29.76,SE,126,0.0,1.0,92,0.00,,---,0.00,VWS V14.00,2013-07-22 05:01:00,
2013-07-22 00:05:00,65.4,63.0,29.76,SSE,163,0.0,3.0,92,0.00,,---,0.00,VWS V14.00,2013-07-22 05:05:00,
2013-07-22 00:06:00,65.5,63.1,29.76,SSE,163,0.0,0.0,92,0.00,,---,0.00,VWS V14.00,2013-07-22 05:06:00,
2013-07-22 00:10:00,65.5,63.1,29.76,SSE,163,0.0,0.0,92,0.00,,---,0.00,VWS V14.00,2013-07-22 05:10:00,
2013-07-22 00:11:00,65.5,63.1,29.75,SSE,163,0.0,0.0,92,0.00,,---,0.00,VWS V14.00,2013-07-22 05:11:00,
2013-07-22 00:15:00,65.5,63.1,29.75,SSE,163,0.0,0.0,92,0.00,,---,0.00,VWS V14.00,2013-07-22 05:15:00,
2013-07-22 00:16:00,65.5,63.1,29.75,SSE,163,2.0,4.0,92,0.00,,---,0.00,VWS V14.00,2013-07-22 05:16:00,
2013-07-22 00:20:00,65.4,63.0,29.75,SW,219,0.0,6.0,92,0.00,,---,0.00,VWS V14.00,2013-07-22 05:20:00,
2013-07-22 00:21:00,65.4,63.3,29.75,SW,219,0.0,1.0,93,0.00,,---,0.00,VWS V14.00,2013-07-22 05:21:00,
2013-07-22 00:25:00,65.4,63.3,29.75,SSW,213,0.0,4.0,93,0.00,,---,0.00,VWS V14.00,2013-07-22 05:25:00,
2013-07-22 00:26:00,65.3,63.2,29.75,SSW,206,0.0,2.0,93,0.00,,---,0.00,VWS V14.00,2013-07-22 05:26:00,
2013-07-22 00:30:00,65.3,63.2,29.75,South,172,0.0,3.0,93,0.00,,---,0.00,VWS V14.00,2013-07-22 05:30:00,
2013-07-22 00:31:00,65.3,63.2,29.75,South,173,0.0,2.0,93,0.00,,---,0.00,VWS V14.00,2013-07-22 05:31:00,
2013-07-22 00:35:00,65.3,63.2,29.75,South,173,0.0,2.0,93,0.00,,---,0.00,VWS V14.00,2013-07-22 05:35:00,
2013-07-22 00:36:00,65.3,63.2,29.75,South,173,0.0,2.0,93,0.00,,---,0.00,VWS V14.00,2013-07-22 05:36:00,
2013-07-22 00:40:00,65.3,63.2,29.75,South,172,1.0,3.0,93,0.00,,---,0.00,VWS V14.00,2013-07-22 05:40:00,
2013-07-22 00:41:00,65.2,63.1,29.74,South,172,0.0,1.0,93,0.00,,---,0.00,VWS V14.00,2013-07-22 05:41:00,
2013-07-22 00:45:00,65.2,63.1,29.74,South,172,0.0,1.0,93,0.00,,---,0.00,VWS V14.00,2013-07-22 05:45:00,
2013-07-22 00:46:00,65.2,63.1,29.74,South,172,0.0,0.0,93,0.00,,---,0.00,VWS V14.00,2013-07-22 05:46:00,
2013-07-22 00:50:00,65.2,63.1,29.74,SE,142,0.0,0.0,93,0.00,,---,0.00,VWS V14.00,2013-07-22 05:50:00,
2013-07-22 00:51:00,65.2,63.1,29.74,SE,141,0.0,0.0,93,0.00,,---,0.00,VWS V14.00,2013-07-22 05:51:00,
2013-07-22 00:55:00,65.3,63.2,29.74,SE,141,0.0,0.0,93,0.00,,---,0.00,VWS V14.00,2013-07-22 05:55:00,
2013-07-22 00:56:00,65.3,63.2,29.74,SE,142,0.0,0.0,93,0.00,,---,0.00,VWS V14.00,2013-07-22 05:56:00,
2013-07-22 01:00:00,65.2,63.1,29.74,SE,142,0.0,0.0,93,0.00,,---,0.00,VWS V14.00,2013-07-22 06:00:00,
2013-07-22 01:01:00,65.3,63.2,29.74,SE,141,0.0,0.0,93,0.00,,---,0.00,VWS V14.00,2013-07-22 06:01:00,
2013-07-22 01:05:00,65.3,63.2,29.74,SE,142,0.0,0.0,93,0.00,,---,0.00,VWS V14.00,2013-07-22 06:05:00,
2013-07-22 01:06:00,65.3,63.2,29.74,SE,142,0.0,0.0,93,0.00,,---,0.00,VWS V14.00,2013-07-22 06:06:00,
2013-07-22 01:10:00,65.3,63.2,29.74,SE,137,0.0,2.0,93,0.00,,---,0.00,VWS V14.00,2013-07-22 06:10:00,
2013-07-22 01:11:00,65.3,63.2,29.73,SE,138,0.0,2.0,93,0.00,,---,0.00,VWS V14.00,2013-07-22 06:11:00,
2013-07-22 01:15:00,65.4,63.3,29.73,SE,137,0.0,2.0,93,0.00,,---,0.00,VWS V14.00,2013-07-22 06:15:00,
2013-07-22 01:16:00,65.4,63.3,29.73,SE,138,0.0,0.0,93,0.00,,---,0.00,VWS V14.00,2013-07-22 06:16:00,
2013-07-22 01:20:00,65.3,63.2,29.73,SE,138,0.0,0.0,93,0.00,,---,0.00,VWS V14.00,2013-07-22 06:20:00,
2013-07-22 01:21:00,65.3,63.2,29.73,SE,137,0.0,1.0,93,0.00,,---,0.00,VWS V14.00,2013-07-22 06:21:00,
2013-07-22 01:25:00,65.4,63.3,29.73,SE,138,0.0,1.0,93,0.00,,---,0.00,VWS V14.00,2013-07-22 06:25:00,
2013-07-22 01:26:00,65.3,63.2,29.73,SE,138,0.0,0.0,93,0.00,,---,0.00,VWS V14.00,2013-07-22 06:26:00,
2013-07-22 01:30:00,65.3,63.2,29.73,SE,138,0.0,0.0,93,0.00,,---,0.00,VWS V14.00,2013-07-22 06:30:00,
2013-07-22 01:31:00,65.3,63.2,29.73,SE,137,0.0,0.0,93,0.00,,---,0.00,VWS V14.00,2013-07-22 06:31:00,
2013-07-22 01:35:00,65.2,63.1,29.73,SE,137,0.0,1.0,93,0.00,,---,0.00,VWS V14.00,2013-07-22 06:35:00,
2013-07-22 01:36:00,65.2,63.1,29.72,SE,138,0.0,0.0,93,0.00,,---,0.00,VWS V14.00,2013-07-22 06:36:00,
2013-07-22 01:40:00,65.2,63.1,29.72,SE,138,0.0,0.0,93,0.00,,---,0.00,VWS V14.00,2013-07-22 06:40:00,
2013-07-22 01:41:00,65.1,63.0,29.72,SE,138,0.0,0.0,93,0.00,,---,0.00,VWS V14.00,2013-07-22 06:41:00,
2013-07-22 01:45:00,65.1,63.0,29.72,SE,138,0.0,0.0,93,0.00,,---,0.00,VWS V14.00,2013-07-22 06:45:00,
2013-07-22 01:46:00,65.0,62.9,29.71,SE,138,0.0,0.0,93,0.00,,---,0.00,VWS V14.00,2013-07-22 06:46:00,
2013-07-22 01:50:00,65.0,62.9,29.71,SE,137,0.0,0.0,93,0.00,,---,0.00,VWS V14.00,2013-07-22 06:50:00,
2013-07-22 01:51:00,64.9,62.8,29.71,SE,138,0.0,0.0,93,0.00,,---,0.00,VWS V14.00,2013-07-22 06:51:00,
2013-07-22 01:55:00,64.8,62.7,29.71,SE,138,0.0,0.0,93,0.00,,---,0.00,VWS V14.00,2013-07-22 06:55:00,
2013-07-22 01:56:00,64.7,62.6,29.71,SE,138,0.0,0.0,93,0.00,,---,0.00,VWS V14.00,2013-07-22 06:56:00,
2013-07-22 02:00:00,64.7,62.9,29.71,SE,138,0.0,0.0,94,0.00,,---,0.00,VWS V14.00,2013-07-22 07:00:00,
2013-07-22 02:01:00,64.6,62.8,29.71,SE,137,0.0,0.0,94,0.00,,---,0.00,VWS V14.00,2013-07-22 07:01:00,
2013-07-22 02:05:00,64.4,62.3,29.71,SE,138,0.0,1.0,93,0.00,,---,0.00,VWS V14.00,2013-07-22 07:05:00,
2013-07-22 02:06:00,64.3,62.5,29.71,SE,137,0.0,0.0,94,0.00,,---,0.00,VWS V14.00,2013-07-22 07:06:00,
2013-07-22 02:10:00,64.3,62.5,29.71,SE,137,0.0,0.0,94,0.00,,---,0.00,VWS V14.00,2013-07-22 07:10:00,
2013-07-22 02:11:00,64.2,62.4,29.72,SE,138,0.0,0.0,94,0.00,,---,0.00,VWS V14.00,2013-07-22 07:11:00,
2013-07-22 02:15:00,64.2,62.4,29.72,SE,137,0.0,0.0,94,0.00,,---,0.00,VWS V14.00,2013-07-22 07:15:00,
2013-07-22 02:16:00,64.2,62.4,29.72,SE,138,0.0,0.0,94,0.00,,---,0.00,VWS V14.00,2013-07-22 07:16:00,
2013-07-22 02:20:00,64.1,62.3,29.72,SE,138,0.0,0.0,94,0.00,,---,0.00,VWS V14.00,2013-07-22 07:20:00,
2013-07-22 02:21:00,64.0,62.2,29.71,SE,137,0.0,0.0,94,0.00,,---,0.00,VWS V14.00,2013-07-22 07:21:00,
2013-07-22 02:25:00,63.9,62.1,29.71,SE,138,0.0,1.0,94,0.00,,---,0.00,VWS V14.00,2013-07-22 07:25:00,
2013-07-22 02:27:00,63.8,62.0,29.71,SE,138,0.0,0.0,94,0.00,,---,0.00,VWS V14.00,2013-07-22 07:27:00,
2013-07-22 02:30:00,63.8,62.0,29.71,SE,137,0.0,0.0,94,0.00,,---,0.00,VWS V14.00,2013-07-22 07:30:00,
2013-07-22 02:32:00,63.7,62.2,29.72,SE,138,0.0,0.0,95,0.00,,---,0.00,VWS V14.00,2013-07-22 07:32:00,
2013-07-22 02:35:00,63.6,62.2,29.72,SE,138,0.0,1.0,95,0.00,,---,0.00,VWS V14.00,2013-07-22 07:35:00,
2013-07-22 02:37:00,63.6,62.2,29.72,SE,137,0.0,0.0,95,0.00,,---,0.00,VWS V14.00,2013-07-22 07:37:00,
2013-07-22 02:40:00,63.5,62.0,29.72,SE,138,0.0,1.0,95,0.00,,---,0.00,VWS V14.00,2013-07-22 07:40:00,
2013-07-22 02:42:00,63.4,62.0,29.71,SE,138,0.0,0.0,95,0.00,,---,0.00,VWS V14.00,2013-07-22 07:42:00,
2013-07-22 02:45:00,63.3,61.8,29.71,SE,138,0.0,0.0,95,0.00,,---,0.00,VWS V14.00,2013-07-22 07:45:00,
2013-07-22 02:47:00,63.3,61.8,29.71,SE,137,0.0,0.0,95,0.00,,---,0.00,VWS V14.00,2013-07-22 07:47:00,
2013-07-22 02:50:00,63.3,61.8,29.71,SE,137,0.0,1.0,95,0.00,,---,0.00,VWS V14.00,2013-07-22 07:50:00,
2013-07-22 02:52:00,63.3,61.8,29.72,SE,137,0.0,0.0,95,0.00,,---,0.00,VWS V14.00,2013-07-22 07:52:00,
2013-07-22 02:55:00,63.3,61.8,29.71,SE,138,0.0,1.0,95,0.00,,---,0.00,VWS V14.00,2013-07-22 07:55:00,
2013-07-22 02:57:00,63.3,61.8,29.71,SE,137,0.0,0.0,95,0.00,,---,0.00,VWS V14.00,2013-07-22 07:57:00,
2013-07-22 03:00:00,63.3,61.8,29.71,SE,137,0.0,0.0,95,0.00,,---,0.00,VWS V14.00,2013-07-22 08:00:00,
2013-07-22 03:02:00,63.2,61.8,29.73,SE,138,0.0,0.0,95,0.00,,---,0.00,VWS V14.00,2013-07-22 08:02:00,
2013-07-22 03:05:00,63.1,61.7,29.72,SE,138,0.0,0.0,95,0.00,,---,0.00,VWS V14.00,2013-07-22 08:05:00,
2013-07-22 03:07:00,63.1,61.7,29.72,SE,138,0.0,0.0,95,0.00,,---,0.00,VWS V14.00,2013-07-22 08:07:00,
2013-07-22 03:10:00,63.0,61.5,29.72,SE,138,0.0,0.0,95,0.00,,---,0.00,VWS V14.00,2013-07-22 08:10:00,
2013-07-22 03:12:00,62.9,61.5,29.72,SE,137,0.0,0.0,95,0.00,,---,0.00,VWS V14.00,2013-07-22 08:12:00,
2013-07-22 03:15:00,63.0,61.8,29.72,SE,138,0.0,0.0,96,0.00,,---,0.00,VWS V14.00,2013-07-22 08:15:00,
2013-07-22 03:17:00,63.0,61.8,29.72,SE,138,0.0,0.0,96,0.00,,---,0.00,VWS V14.00,2013-07-22 08:17:00,
2013-07-22 03:20:00,62.9,61.5,29.72,SE,138,0.0,0.0,95,0.00,,---,0.00,VWS V14.00,2013-07-22 08:20:00,
2013-07-22 03:22:00,62.8,61.3,29.72,SE,138,0.0,0.0,95,0.00,,---,0.00,VWS V14.00,2013-07-22 08:22:00,
2013-07-22 03:25:00,62.8,61.3,29.72,SE,137,0.0,0.0,95,0.00,,---,0.00,VWS V14.00,2013-07-22 08:25:00,
2013-07-22 03:27:00,62.7,61.2,29.72,SE,137,0.0,0.0,95,0.00,,---,0.00,VWS V14.00,2013-07-22 08:27:00,
2013-07-22 03:30:00,62.6,61.2,29.72,SE,137,0.0,0.0,95,0.00,,---,0.00,VWS V14.00,2013-07-22 08:30:00,
2013-07-22 03:32:00,62.6,61.5,29.73,SE,138,0.0,0.0,96,0.00,,---,0.00,VWS V14.00,2013-07-22 08:32:00,
2013-07-22 03:35:00,62.5,61.3,29.73,SE,138,0.0,0.0,96,0.00,,---,0.00,VWS V14.00,2013-07-22 08:35:00,
2013-07-22 03:37:00,62.5,61.3,29.73,SE,138,0.0,0.0,96,0.00,,---,0.00,VWS V14.00,2013-07-22 08:37:00,
2013-07-22 03:40:00,62.4,61.2,29.72,SE,138,0.0,0.0,96,0.00,,---,0.00,VWS V14.00,2013-07-22 08:40:00,
2013-07-22 03:42:00,62.4,61.2,29.73,SE,137,0.0,0.0,96,0.00,,---,0.00,VWS V14.00,2013-07-22 08:42:00,
2013-07-22 03:45:00,62.3,61.2,29.73,SE,137,0.0,0.0,96,0.00,,---,0.00,VWS V14.00,2013-07-22 08:45:00,
2013-07-22 03:47:00,62.3,61.2,29.73,SE,138,0.0,0.0,96,0.00,,---,0.00,VWS V14.00,2013-07-22 08:47:00,
2013-07-22 03:50:00,62.3,61.2,29.73,SE,138,0.0,0.0,96,0.00,,---,0.00,VWS V14.00,2013-07-22 08:50:00,
2013-07-22 03:52:00,62.2,61.0,29.73,SE,138,0.0,0.0,96,0.00,,---,0.00,VWS V14.00,2013-07-22 08:52:00,
2013-07-22 03:55:00,62.1,61.0,29.73,SE,138,0.0,0.0,96,0.00,,---,0.00,VWS V14.00,2013-07-22 08:55:00,
2013-07-22 03:57:00,62.1,61.0,29.73,SE,138,0.0,0.0,96,0.00,,---,0.00,VWS V14.00,2013-07-22 08:57:00,
2013-07-22 04:00:00,62.0,60.8,29.73,SE,137,0.0,0.0,96,0.00,,---,0.00,VWS V14.00,2013-07-22 09:00:00,
2013-07-22 04:02:00,62.0,60.8,29.73,SE,137,0.0,1.0,96,0.00,,---,0.00,VWS V14.00,2013-07-22 09:02:00,
2013-07-22 04:05:00,61.9,60.8,29.73,SE,137,0.0,1.0,96,0.00,,---,0.00,VWS V14.00,2013-07-22 09:05:00,
2013-07-22 04:07:00,61.9,60.8,29.73,SE,137,0.0,0.0,96,0.00,,---,0.00,VWS V14.00,2013-07-22 09:07:00,
2013-07-22 04:10:00,61.8,60.7,29.73,SE,138,0.0,0.0,96,0.00,,---,0.00,VWS V14.00,2013-07-22 09:10:00,
2013-07-22 04:12:00,61.8,60.7,29.73,SE,138,0.0,0.0,96,0.00,,---,0.00,VWS V14.00,2013-07-22 09:12:00,
2013-07-22 04:15:00,61.8,60.7,29.74,SE,138,0.0,0.0,96,0.00,,---,0.00,VWS V14.00,2013-07-22 09:15:00,
2013-07-22 04:17:00,61.8,60.7,29.74,SE,138,0.0,0.0,96,0.00,,---,0.00,VWS V14.00,2013-07-22 09:17:00,
2013-07-22 04:20:00,61.8,60.7,29.74,SE,138,0.0,0.0,96,0.00,,---,0.00,VWS V14.00,2013-07-22 09:20:00,
2013-07-22 04:22:00,61.8,60.7,29.73,SE,137,0.0,0.0,96,0.00,,---,0.00,VWS V14.00,2013-07-22 09:22:00,
2013-07-22 04:25:00,61.8,60.7,29.73,SE,138,0.0,0.0,96,0.00,,---,0.00,VWS V14.00,2013-07-22 09:25:00,
2013-07-22 04:27:00,61.8,60.7,29.73,SE,138,0.0,0.0,96,0.00,,---,0.00,VWS V14.00,2013-07-22 09:27:00,
2013-07-22 04:30:00,61.8,60.7,29.73,SE,138,0.0,0.0,96,0.00,,---,0.00,VWS V14.00,2013-07-22 09:30:00,
2013-07-22 04:32:00,61.8,60.7,29.73,SE,138,0.0,0.0,96,0.00,,---,0.00,VWS V14.00,2013-07-22 09:32:00,
2013-07-22 04:35:00,61.8,60.7,29.73,SE,137,0.0,0.0,96,0.00,,---,0.00,VWS V14.00,2013-07-22 09:35:00,
2013-07-22 04:37:00,61.8,60.7,29.73,SE,137,0.0,0.0,96,0.00,,---,0.00,VWS V14.00,2013-07-22 09:37:00,
2013-07-22 04:40:00,61.8,60.7,29.73,SE,137,0.0,0.0,96,0.00,,---,0.00,VWS V14.00,2013-07-22 09:40:00,
2013-07-22 04:42:00,61.9,60.8,29.73,SE,138,0.0,0.0,96,0.00,,---,0.00,VWS V14.00,2013-07-22 09:42:00,
2013-07-22 04:45:00,61.9,61.0,29.73,SE,138,0.0,0.0,97,0.00,,---,0.00,VWS V14.00,2013-07-22 09:45:00,
2013-07-22 04:47:00,62.0,60.8,29.72,SE,137,0.0,0.0,96,0.00,,---,0.00,VWS V14.00,2013-07-22 09:47:00,
2013-07-22 04:50:00,62.0,61.1,29.72,SE,138,0.0,0.0,97,0.00,,---,0.00,VWS V14.00,2013-07-22 09:50:00,
2013-07-22 04:52:00,62.0,61.1,29.72,SE,138,0.0,0.0,97,0.00,,---,0.00,VWS V14.00,2013-07-22 09:52:00,
2013-07-22 04:55:00,62.0,61.1,29.72,SE,138,0.0,0.0,97,0.00,,---,0.00,VWS V14.00,2013-07-22 09:55:00,
2013-07-22 04:57:00,61.9,61.0,29.72,SE,138,0.0,0.0,97,0.00,,---,0.00,VWS V14.00,2013-07-22 09:57:00,
2013-07-22 05:00:00,61.9,61.0,29.72,SE,137,0.0,0.0,97,0.00,,---,0.00,VWS V14.00,2013-07-22 10:00:00,
2013-07-22 05:02:00,61.9,61.0,29.72,SE,138,0.0,0.0,97,0.00,,---,0.00,VWS V14.00,2013-07-22 10:02:00,
2013-07-22 05:05:00,61.9,61.0,29.72,SE,138,0.0,0.0,97,0.00,,---,0.00,VWS V14.00,2013-07-22 10:05:00,
2013-07-22 05:07:00,61.9,61.0,29.72,SE,138,0.0,0.0,97,0.00,,---,0.00,VWS V14.00,2013-07-22 10:07:00,
2013-07-22 05:10:00,62.0,61.1,29.72,SE,138,0.0,0.0,97,0.00,,---,0.00,VWS V14.00,2013-07-22 10:10:00,
2013-07-22 05:12:00,62.0,61.1,29.72,SE,137,0.0,0.0,97,0.00,,---,0.00,VWS V14.00,2013-07-22 10:12:00,
2013-07-22 05:15:00,61.9,61.0,29.72,SE,137,0.0,0.0,97,0.00,,---,0.00,VWS V14.00,2013-07-22 10:15:00,
2013-07-22 05:17:00,61.8,60.9,29.72,SE,138,0.0,0.0,97,0.00,,---,0.00,VWS V14.00,2013-07-22 10:17:00,
2013-07-22 05:20:00,61.8,60.7,29.72,SE,137,0.0,0.0,96,0.00,,---,0.00,VWS V14.00,2013-07-22 10:20:00,
2013-07-22 05:22:00,61.8,60.9,29.72,SE,138,0.0,0.0,97,0.00,,---,0.00,VWS V14.00,2013-07-22 10:22:00,
2013-07-22 05:25:00,61.7,60.8,29.72,SE,138,0.0,0.0,97,0.00,,---,0.00,VWS V14.00,2013-07-22 10:25:00,
2013-07-22 05:27:00,61.7,60.8,29.71,SE,137,0.0,0.0,97,0.00,,---,0.00,VWS V14.00,2013-07-22 10:27:00,
2013-07-22 05:30:00,61.6,60.7,29.71,SE,138,0.0,0.0,97,0.00,,---,0.00,VWS V14.00,2013-07-22 10:30:00,
2013-07-22 05:32:00,61.6,60.7,29.71,SE,138,0.0,0.0,97,0.00,,---,0.00,VWS V14.00,2013-07-22 10:32:00,
2013-07-22 05:35:00,61.6,60.7,29.71,SE,137,0.0,0.0,97,0.00,,---,0.00,VWS V14.00,2013-07-22 10:35:00,
2013-07-22 05:37:00,61.6,60.7,29.71,SE,138,0.0,0.0,97,0.00,,---,0.00,VWS V14.00,2013-07-22 10:37:00,
2013-07-22 05:40:00,61.5,60.6,29.71,SE,138,0.0,0.0,97,0.00,,---,0.00,VWS V14.00,2013-07-22 10:40:00,
2013-07-22 05:42:00,61.5,60.6,29.71,SE,137,0.0,1.0,97,0.00,,---,0.00,VWS V14.00,2013-07-22 10:42:00,
2013-07-22 05:45:00,61.4,60.5,29.71,SE,138,0.0,1.0,97,0.00,,---,0.00,VWS V14.00,2013-07-22 10:45:00,
2013-07-22 05:47:00,61.5,60.6,29.71,SE,138,0.0,0.0,97,0.00,,---,0.00,VWS V14.00,2013-07-22 10:47:00,
2013-07-22 05:50:00,61.5,60.6,29.71,SE,137,0.0,0.0,97,0.00,,---,0.00,VWS V14.00,2013-07-22 10:50:00,
2013-07-22 05:52:00,61.5,60.6,29.71,SE,138,0.0,0.0,97,0.00,,---,0.00,VWS V14.00,2013-07-22 10:52:00,
2013-07-22 05:55:00,61.6,60.7,29.71,SE,137,0.0,0.0,97,0.00,,---,0.00,VWS V14.00,2013-07-22 10:55:00,
2013-07-22 05:57:00,61.6,60.7,29.71,SE,137,0.0,0.0,97,0.00,,---,0.00,VWS V14.00,2013-07-22 10:57:00,
2013-07-22 06:00:00,61.5,60.6,29.71,SE,138,0.0,0.0,97,0.00,,---,0.00,VWS V14.00,2013-07-22 11:00:00,
2013-07-22 06:02:00,61.6,60.7,29.71,SE,138,0.0,0.0,97,0.00,,---,0.00,VWS V14.00,2013-07-22 11:02:00,
2013-07-22 06:05:00,61.6,60.7,29.71,SE,138,0.0,0.0,97,0.00,,---,0.00,VWS V14.00,2013-07-22 11:05:00,
2013-07-22 06:07:00,61.6,60.7,29.71,SE,138,0.0,0.0,97,0.00,,---,0.00,VWS V14.00,2013-07-22 11:07:00,
2013-07-22 06:10:00,61.7,60.8,29.71,SE,137,0.0,0.0,97,0.00,,---,0.00,VWS V14.00,2013-07-22 11:10:00,
2013-07-22 06:12:00,61.8,60.9,29.71,SE,137,0.0,0.0,97,0.00,,---,0.00,VWS V14.00,2013-07-22 11:12:00,
2013-07-22 06:15:00,61.9,61.0,29.71,SE,138,0.0,0.0,97,0.00,,---,0.00,VWS V14.00,2013-07-22 11:15:00,
2013-07-22 06:17:00,62.1,61.2,29.71,SE,138,0.0,0.0,97,0.00,,---,0.00,VWS V14.00,2013-07-22 11:17:00,
2013-07-22 06:20:00,62.3,61.4,29.71,SE,138,0.0,0.0,97,0.00,,---,0.00,VWS V14.00,2013-07-22 11:20:00,
2013-07-22 06:22:00,62.4,61.5,29.71,SE,138,0.0,0.0,97,0.00,,---,0.00,VWS V14.00,2013-07-22 11:22:00,
2013-07-22 06:25:00,62.5,61.6,29.71,SE,138,0.0,0.0,97,0.00,,---,0.00,VWS V14.00,2013-07-22 11:25:00,
2013-07-22 06:27:00,62.8,62.2,29.71,SE,138,0.0,0.0,98,0.00,,---,0.00,VWS V14.00,2013-07-22 11:27:00,
2013-07-22 06:30:00,62.9,62.0,29.71,SE,137,0.0,0.0,97,0.00,,---,0.00,VWS V14.00,2013-07-22 11:30:00,
2013-07-22 06:32:00,63.1,62.2,29.71,SE,138,0.0,0.0,97,0.00,,---,0.00,VWS V14.00,2013-07-22 11:32:00,
2013-07-22 06:35:00,63.4,62.8,29.72,SE,138,0.0,0.0,98,0.00,,---,0.00,VWS V14.00,2013-07-22 11:35:00,
2013-07-22 06:37:00,63.6,63.0,29.72,SE,137,0.0,0.0,98,0.00,,---,0.00,VWS V14.00,2013-07-22 11:37:00,
2013-07-22 06:40:00,63.8,63.2,29.72,SE,138,0.0,0.0,98,0.00,,---,0.00,VWS V14.00,2013-07-22 11:40:00,
2013-07-22 06:42:00,64.1,63.5,29.72,SE,137,0.0,0.0,98,0.00,,---,0.00,VWS V14.00,2013-07-22 11:42:00,
2013-07-22 06:45:00,64.2,63.6,29.72,SE,138,0.0,0.0,98,0.00,,---,0.00,VWS V14.00,2013-07-22 11:45:00,
2013-07-22 06:47:00,64.2,63.3,29.72,SE,138,0.0,0.0,97,0.00,,---,0.00,VWS V14.00,2013-07-22 11:47:00,
2013-07-22 06:50:00,64.3,63.4,29.72,SE,137,0.0,0.0,97,0.00,,---,0.00,VWS V14.00,2013-07-22 11:50:00,
2013-07-22 06:52:00,64.4,63.5,29.72,SE,137,0.0,0.0,97,0.00,,---,0.00,VWS V14.00,2013-07-22 11:52:00,
2013-07-22 06:55:00,64.5,63.6,29.72,SE,138,0.0,0.0,97,0.00,,---,0.00,VWS V14.00,2013-07-22 11:55:00,
2013-07-22 06:57:00,64.5,63.6,29.72,SE,137,0.0,0.0,97,0.00,,---,0.00,VWS V14.00,2013-07-22 11:57:00,
2013-07-22 07:00:00,64.6,63.7,29.72,SE,138,0.0,0.0,97,0.00,,---,0.00,VWS V14.00,2013-07-22 12:00:00,
2013-07-22 07:02:00,64.6,63.7,29.72,SE,135,0.0,1.0,97,0.00,,---,0.00,VWS V14.00,2013-07-22 12:02:00,
2013-07-22 07:05:00,64.6,63.7,29.72,SE,135,0.0,1.0,97,0.00,,---,0.00,VWS V14.00,2013-07-22 12:05:00,
2013-07-22 07:07:00,64.7,63.8,29.71,SE,134,1.0,2.0,97,0.00,,---,0.00,VWS V14.00,2013-07-22 12:07:00,
2013-07-22 07:10:00,64.7,63.8,29.71,SE,134,0.0,2.0,97,0.00,,---,0.00,VWS V14.00,2013-07-22 12:10:00,
2013-07-22 07:12:00,64.9,64.0,29.71,SE,135,0.0,1.0,97,0.00,,---,0.00,VWS V14.00,2013-07-22 12:12:00,
2013-07-22 07:15:00,64.9,63.7,29.71,SE,135,0.0,3.0,96,0.00,,---,0.00,VWS V14.00,2013-07-22 12:15:00,
2013-07-22 07:17:00,64.8,63.6,29.71,SE,136,0.0,3.0,96,0.00,,---,0.00,VWS V14.00,2013-07-22 12:17:00,
2013-07-22 07:20:00,64.8,63.6,29.71,NNE,27,1.0,3.0,96,0.00,,---,0.00,VWS V14.00,2013-07-22 12:20:00,
2013-07-22 07:22:00,64.8,63.6,29.71,South,175,0.0,3.0,96,0.00,,---,0.00,VWS V14.00,2013-07-22 12:22:00,
2013-07-22 07:25:00,64.8,63.6,29.72,South,175,0.0,3.0,96,0.00,,---,0.00,VWS V14.00,2013-07-22 12:25:00,
2013-07-22 07:27:00,65.0,63.8,29.72,South,176,0.0,2.0,96,0.00,,---,0.00,VWS V14.00,2013-07-22 12:27:00,
2013-07-22 07:30:00,65.1,64.2,29.72,SSW,199,1.0,3.0,97,0.00,,---,0.00,VWS V14.00,2013-07-22 12:30:00,
2013-07-22 07:32:00,65.2,64.0,29.72,South,171,0.0,3.0,96,0.00,,---,0.00,VWS V14.00,2013-07-22 12:32:00,
2013-07-22 07:35:00,65.3,64.1,29.72,ESE,121,3.0,3.0,96,0.00,,---,0.00,VWS V14.00,2013-07-22 12:35:00,
2013-07-22 07:37:00,65.2,64.0,29.71,ESE,115,1.0,3.0,96,0.00,,---,0.00,VWS V14.00,2013-07-22 12:37:00,
2013-07-22 07:40:00,65.2,64.0,29.71,ESE,115,0.0,3.0,96,0.00,,---,0.00,VWS V14.00,2013-07-22 12:40:00,
2013-07-22 07:42:00,65.2,64.0,29.71,SSE,159,0.0,5.0,96,0.00,,---,0.00,VWS V14.00,2013-07-22 12:42:00,
2013-07-22 07:45:00,65.3,64.1,29.71,SSE,159,3.0,5.0,96,0.00,,---,0.00,VWS V14.00,2013-07-22 12:45:00,
2013-07-22 07:47:00,65.4,64.2,29.71,ESE,121,2.0,4.0,96,0.00,,---,0.00,VWS V14.00,2013-07-22 12:47:00,
2013-07-22 07:50:00,65.4,64.2,29.71,ESE,121,0.0,4.0,96,0.00,,---,0.00,VWS V14.00,2013-07-22 12:50:00,
2013-07-22 07:52:00,65.6,64.4,29.71,ESE,121,0.0,3.0,96,0.00,,---,0.00,VWS V14.00,2013-07-22 12:52:00,
2013-07-22 07:55:00,65.7,64.5,29.71,SE,124,2.0,3.0,96,0.00,,---,0.00,VWS V14.00,2013-07-22 12:55:00,
2013-07-22 07:57:00,65.8,64.6,29.71,SE,134,0.0,4.0,96,0.00,,---,0.00,VWS V14.00,2013-07-22 12:57:00,
2013-07-22 08:00:00,65.8,64.6,29.71,SSW,211,0.0,5.0,96,0.00,,---,0.00,VWS V14.00,2013-07-22 13:00:00,
2013-07-22 08:02:00,65.9,64.7,29.71,SSW,207,0.0,1.0,96,0.00,,---,0.00,VWS V14.00,2013-07-22 13:02:00,
2013-07-22 08:05:00,66.0,64.8,29.71,SSW,206,0.0,1.0,96,0.00,,---,0.00,VWS V14.00,2013-07-22 13:05:00,
2013-07-22 08:07:00,66.0,64.8,29.71,South,177,2.0,3.0,96,0.00,,---,0.00,VWS V14.00,2013-07-22 13:07:00,
2013-07-22 08:10:00,65.9,64.7,29.71,SE,140,5.0,5.0,96,0.00,,---,0.00,VWS V14.00,2013-07-22 13:10:00,
2013-07-22 08:12:00,65.9,64.7,29.71,SE,142,1.0,5.0,96,0.00,,---,0.00,VWS V14.00,2013-07-22 13:12:00,
2013-07-22 08:15:00,65.9,64.7,29.72,SSE,153,0.0,5.0,96,0.00,,---,0.00,VWS V14.00,2013-07-22 13:15:00,
2013-07-22 08:17:00,65.9,64.7,29.72,SSE,154,1.0,3.0,96,0.00,,---,0.00,VWS V14.00,2013-07-22 13:17:00,
2013-07-22 08:20:00,65.9,64.7,29.72,NE,48,1.0,3.0,96,0.00,,---,0.00,VWS V14.00,2013-07-22 13:20:00,
2013-07-22 08:22:00,66.1,64.9,29.72,East,96,0.0,2.0,96,0.00,,---,0.00,VWS V14.00,2013-07-22 13:22:00,
2013-07-22 08:25:00,66.2,65.0,29.72,SSE,154,0.0,3.0,96,0.00,,---,0.00,VWS V14.00,2013-07-22 13:25:00,
2013-07-22 08:27:00,66.2,65.0,29.72,SSE,165,1.0,3.0,96,0.00,,---,0.00,VWS V14.00,2013-07-22 13:27:00,
2013-07-22 08:30:00,66.3,65.1,29.72,SSW,196,1.0,3.0,96,0.00,,---,0.00,VWS V14.00,2013-07-22 13:30:00,
2013-07-22 08:32:00,66.4,65.2,29.72,SSE,163,3.0,3.0,96,0.00,,---,0.00,VWS V14.00,2013-07-22 13:32:00,
2013-07-22 08:35:00,66.5,65.3,29.72,SSE,163,0.0,3.0,96,0.00,,---,0.00,VWS V14.00,2013-07-22 13:35:00,
2013-07-22 08:37:00,66.6,65.1,29.72,SSE,163,0.0,1.0,95,0.00,,---,0.00,VWS V14.00,2013-07-22 13:37:00,
2013-07-22 08:40:00,66.7,65.2,29.72,SSE,163,1.0,4.0,95,0.00,,---,0.00,VWS V14.00,2013-07-22 13:40:00,
2013-07-22 08:42:00,66.7,65.2,29.72,SSE,167,2.0,5.0,95,0.00,,---,0.00,VWS V14.00,2013-07-22 13:42:00,
2013-07-22 08:45:00,66.6,65.1,29.72,SSW,203,0.0,5.0,95,0.00,,---,0.00,VWS V14.00,2013-07-22 13:45:00,
2013-07-22 08:47:00,66.7,65.2,29.72,SSE,167,0.0,4.0,95,0.00,,---,0.00,VWS V14.00,2013-07-22 13:47:00,
2013-07-22 08:50:00,66.8,65.3,29.72,SSE,167,0.0,4.0,95,0.00,,---,0.00,VWS V14.00,2013-07-22 13:50:00,
2013-07-22 08:52:00,67.0,65.5,29.71,SSE,167,0.0,2.0,95,0.00,,---,0.00,VWS V14.00,2013-07-22 13:52:00,
2013-07-22 08:55:00,67.1,65.6,29.71,SSE,167,1.0,2.0,95,0.00,,---,0.00,VWS V14.00,2013-07-22 13:55:00,
2013-07-22 08:57:00,67.3,65.8,29.71,SSE,167,0.0,3.0,95,0.00,,---,0.00,VWS V14.00,2013-07-22 13:57:00,
2013-07-22 09:00:00,67.4,65.9,29.71,SSE,167,3.0,6.0,95,0.00,,---,0.00,VWS V14.00,2013-07-22 14:00:00,
2013-07-22 09:02:00,67.5,66.0,29.71,SSE,164,0.0,4.0,95,0.00,,---,0.00,VWS V14.00,2013-07-22 14:02:00,
2013-07-22 09:05:00,67.5,66.0,29.71,SSE,164,0.0,4.0,95,0.00,,---,0.00,VWS V14.00,2013-07-22 14:05:00,
2013-07-22 09:07:00,67.9,66.4,29.70,SSE,165,1.0,2.0,95,0.00,,---,0.00,VWS V14.00,2013-07-22 14:07:00,
2013-07-22 09:10:00,68.0,66.2,29.70,South,180,2.0,4.0,94,0.00,,---,0.00,VWS V14.00,2013-07-22 14:10:00,
2013-07-22 09:12:00,68.3,66.8,29.70,South,174,0.0,3.0,95,0.00,,---,0.00,VWS V14.00,2013-07-22 14:12:00,
2013-07-22 09:15:00,68.3,66.5,29.70,South,173,0.0,3.0,94,0.00,,---,0.00,VWS V14.00,2013-07-22 14:15:00,
2013-07-22 09:17:00,68.5,66.7,29.70,South,169,1.0,4.0,94,0.00,,---,0.00,VWS V14.00,2013-07-22 14:17:00,
2013-07-22 09:20:00,68.8,67.0,29.70,SSE,168,0.0,4.0,94,0.00,,---,0.00,VWS V14.00,2013-07-22 14:20:00,
2013-07-22 09:22:00,68.9,66.8,29.70,SSE,155,0.0,5.0,93,0.00,,---,0.00,VWS V14.00,2013-07-22 14:22:00,
2013-07-22 09:25:00,69.0,66.9,29.70,South,173,2.0,5.0,93,0.00,,---,0.00,VWS V14.00,2013-07-22 14:25:00,
2013-07-22 09:27:00,69.3,67.2,29.70,South,171,1.0,5.0,93,0.00,,---,0.00,VWS V14.00,2013-07-22 14:27:00,
2013-07-22 09:30:00,69.4,67.0,29.70,South,169,5.0,7.0,92,0.00,,---,0.00,VWS V14.00,2013-07-22 14:30:00,
2013-07-22 09:32:00,69.8,67.7,29.69,SSE,165,1.0,7.0,93,0.00,,---,0.00,VWS V14.00,2013-07-22 14:32:00,
2013-07-22 09:35:00,70.1,67.7,29.69,SSE,165,0.0,7.0,92,0.00,,---,0.00,VWS V14.00,2013-07-22 14:35:00,
2013-07-22 09:37:00,70.1,67.4,29.69,WSW,240,3.0,5.0,91,0.00,,---,0.00,VWS V14.00,2013-07-22 14:37:00,
2013-07-22 09:40:00,70.2,67.4,29.69,SSE,160,4.0,5.0,91,0.00,,---,0.00,VWS V14.00,2013-07-22 14:40:00,
2013-07-22 09:42:00,70.7,67.9,29.69,SSE,167,4.0,6.0,91,0.00,,---,0.00,VWS V14.00,2013-07-22 14:42:00,
2013-07-22 09:45:00,71.0,68.6,29.70,South,170,0.0,6.0,92,0.00,,---,0.00,VWS V14.00,2013-07-22 14:45:00,
2013-07-22 09:47:00,71.6,68.5,29.69,South,172,0.0,1.0,90,0.00,,---,0.00,VWS V14.00,2013-07-22 14:47:00,
2013-07-22 09:50:00,72.0,69.2,29.69,South,171,2.0,3.0,91,0.00,,---,0.00,VWS V14.00,2013-07-22 14:50:00,
2013-07-22 09:53:00,72.3,68.6,29.69,SSE,168,2.0,4.0,88,0.00,,---,0.00,VWS V14.00,2013-07-22 14:53:00,
2013-07-22 09:55:00,72.3,68.2,29.69,South,183,0.0,4.0,87,0.00,,---,0.00,VWS V14.00,2013-07-22 14:55:00,
2013-07-22 09:57:00,72.5,68.8,29.69,SSE,156,3.0,4.0,88,0.00,,---,0.00,VWS V14.00,2013-07-22 14:57:00,
2013-07-22 10:00:00,72.7,68.9,29.69,SSE,159,4.0,5.0,88,0.00,,---,0.00,VWS V14.00,2013-07-22 15:00:00,
2013-07-22 10:02:00,73.0,68.6,29.69,SSE,148,1.0,6.0,86,0.00,,---,0.00,VWS V14.00,2013-07-22 15:02:00,
2013-07-22 10:05:00,73.1,69.0,29.68,SSE,160,3.0,6.0,87,0.00,,---,0.00,VWS V14.00,2013-07-22 15:05:00,
2013-07-22 10:08:00,73.3,68.9,29.69,SSE,168,1.0,5.0,86,0.00,,---,0.00,VWS V14.00,2013-07-22 15:08:00,
2013-07-22 10:10:00,73.3,68.9,29.69,SSE,168,1.0,5.0,86,0.00,,---,0.00,VWS V14.00,2013-07-22 15:10:00,
2013-07-22 10:13:00,73.6,69.2,29.68,South,172,3.0,5.0,86,0.00,,---,0.00,VWS V14.00,2013-07-22 15:13:00,
2013-07-22 10:15:00,73.7,69.3,29.69,SSE,161,1.0,5.0,86,0.00,,---,0.00,VWS V14.00,2013-07-22 15:15:00,
2013-07-22 10:18:00,73.7,69.3,29.68,SSE,167,1.0,5.0,86,0.00,,---,0.00,VWS V14.00,2013-07-22 15:18:00,
2013-07-22 10:20:00,73.7,68.9,29.68,SSE,167,3.0,5.0,85,0.00,,---,0.00,VWS V14.00,2013-07-22 15:20:00,
2013-07-22 10:23:00,73.9,69.4,29.68,SSE,167,1.0,6.0,86,0.00,,---,0.00,VWS V14.00,2013-07-22 15:23:00,
2013-07-22 10:25:00,73.9,69.4,29.68,SSE,167,1.0,6.0,86,0.00,,---,0.00,VWS V14.00,2013-07-22 15:25:00,
2013-07-22 10:28:00,74.1,69.7,29.68,South,177,2.0,4.0,86,0.00,,---,0.00,VWS V14.00,2013-07-22 15:28:00,
2013-07-22 10:30:00,74.2,69.4,29.68,SSE,165,5.0,5.0,85,0.00,,---,0.00,VWS V14.00,2013-07-22 15:30:00,
2013-07-22 10:33:00,74.5,69.7,29.68,South,191,3.0,7.0,85,0.00,,---,0.00,VWS V14.00,2013-07-22 15:33:00,
2013-07-22 10:35:00,74.6,69.4,29.69,SSE,149,3.0,8.0,84,0.00,,---,0.00,VWS V14.00,2013-07-22 15:35:00,
2013-07-22 10:38:00,75.0,70.2,29.68,SSE,165,1.0,5.0,85,0.00,,---,0.00,VWS V14.00,2013-07-22 15:38:00,
2013-07-22 10:40:00,75.2,70.0,29.68,South,169,2.0,5.0,84,0.00,,---,0.00,VWS V14.00,2013-07-22 15:40:00,
2013-07-22 10:43:00,75.6,70.4,29.69,South,172,2.0,10.0,84,0.00,,---,0.00,VWS V14.00,2013-07-22 15:43:00,
2013-07-22 10:45:00,75.7,70.2,29.69,South,171,0.0,10.0,83,0.00,,---,0.00,VWS V14.00,2013-07-22 15:45:00,
2013-07-22 10:48:00,76.0,70.1,29.68,SSE,162,0.0,7.0,82,0.00,,---,0.00,VWS V14.00,2013-07-22 15:48:00,
2013-07-22 10:50:00,76.1,70.2,29.68,SSE,165,1.0,7.0,82,0.00,,---,0.00,VWS V14.00,2013-07-22 15:50:00,
2013-07-22 10:53:00,76.4,70.5,29.69,South,170,1.0,4.0,82,0.00,,---,0.00,VWS V14.00,2013-07-22 15:53:00,
2013-07-22 10:55:00,76.5,70.2,29.68,SW,215,5.0,5.0,81,0.00,,---,0.00,VWS V14.00,2013-07-22 15:55:00,
2013-07-22 10:58:00,76.6,70.0,29.68,SSE,167,3.0,9.0,80,0.00,,---,0.00,VWS V14.00,2013-07-22 15:58:00,
2013-07-22 11:00:00,76.7,70.4,29.68,SSE,167,1.0,9.0,81,0.00,,---,0.00,VWS V14.00,2013-07-22 16:00:00,
2013-07-22 11:03:00,77.0,70.4,29.68,SSE,168,4.0,7.0,80,0.00,,---,0.00,VWS V14.00,2013-07-22 16:03:00,
2013-07-22 11:05:00,77.1,70.5,29.68,SSE,150,5.0,7.0,80,0.00,,---,0.00,VWS V14.00,2013-07-22 16:05:00,
2013-07-22 11:08:00,77.6,70.6,29.68,South,190,0.0,8.0,79,0.00,,---,0.00,VWS V14.00,2013-07-22 16:08:00,
2013-07-22 11:10:00,77.6,69.8,29.68,SSE,162,6.0,9.0,77,0.00,,---,0.00,VWS V14.00,2013-07-22 16:10:00,
2013-07-22 11:13:00,78.0,71.3,29.68,SSE,156,4.0,6.0,80,0.00,,---,0.00,VWS V14.00,2013-07-22 16:13:00,
2013-07-22 11:15:00,78.2,70.4,29.68,SSE,157,3.0,7.0,77,0.00,,---,0.00,VWS V14.00,2013-07-22 16:15:00,
2013-07-22 11:18:00,77.9,69.3,29.69,SW,230,3.0,9.0,75,0.00,,---,0.00,VWS V14.00,2013-07-22 16:18:00,
2013-07-22 11:20:00,77.8,69.2,29.68,South,170,3.0,10.0,75,0.00,,---,0.00,VWS V14.00,2013-07-22 16:20:00,
2013-07-22 11:23:00,77.8,69.6,29.68,SSE,157,3.0,10.0,76,0.00,,---,0.00,VWS V14.00,2013-07-22 16:23:00,
2013-07-22 11:25:00,77.9,69.7,29.68,SE,142,7.0,10.0,76,0.00,,---,0.00,VWS V14.00,2013-07-22 16:25:00,
2013-07-22 11:28:00,78.4,69.8,29.69,South,183,5.0,10.0,75,0.00,,---,0.00,VWS V14.00,2013-07-22 16:28:00,
2013-07-22 11:30:00,78.5,70.3,29.68,SSE,159,5.0,10.0,76,0.00,,---,0.00,VWS V14.00,2013-07-22 16:30:00,
2013-07-22 11:33:00,78.6,70.0,29.68,SSE,161,2.0,12.0,75,0.00,,---,0.00,VWS V14.00,2013-07-22 16:33:00,
2013-07-22 11:35:00,78.7,70.1,29.68,South,175,2.0,13.0,75,0.00,,---,0.00,VWS V14.00,2013-07-22 16:35:00,
2013-07-22 11:38:00,78.6,70.0,29.68,South,187,3.0,10.0,75,0.00,,---,0.00,VWS V14.00,2013-07-22 16:38:00,
2013-07-22 11:40:00,78.7,70.1,29.68,South,178,5.0,10.0,75,0.00,,---,0.00,VWS V14.00,2013-07-22 16:40:00,
2013-07-22 11:43:00,78.6,69.6,29.68,South,184,1.0,12.0,74,0.00,,---,0.00,VWS V14.00,2013-07-22 16:43:00,
2013-07-22 11:45:00,78.8,70.6,29.69,SSE,167,0.0,12.0,76,0.00,,---,0.00,VWS V14.00,2013-07-22 16:45:00,
2013-07-22 11:48:00,78.9,69.9,29.69,South,169,1.0,7.0,74,0.00,,---,0.00,VWS V14.00,2013-07-22 16:48:00,
2013-07-22 11:50:00,78.8,69.8,29.68,South,169,4.0,7.0,74,0.00,,---,0.00,VWS V14.00,2013-07-22 16:50:00,
2013-07-22 11:53:00,78.9,70.3,29.68,South,169,5.0,5.0,75,0.00,,---,0.00,VWS V14.00,2013-07-22 16:53:00,
2013-07-22 11:55:00,79.1,70.1,29.68,South,174,2.0,7.0,74,0.00,,---,0.00,VWS V14.00,2013-07-22 16:55:00,
2013-07-22 11:58:00,79.6,70.2,29.68,SSE,157,4.0,6.0,73,0.00,,---,0.00,VWS V14.00,2013-07-22 16:58:00,
2013-07-22 12:00:00,79.7,70.3,29.68,SSE,166,3.0,7.0,73,0.00,,---,0.00,VWS V14.00,2013-07-22 17:00:00,
2013-07-22 12:03:00,80.1,69.4,29.68,South,175,3.0,11.0,70,0.00,,---,0.00,VWS V14.00,2013-07-22 17:03:00,
2013-07-22 12:05:00,80.1,69.0,29.68,South,171,1.0,11.0,69,0.00,,---,0.00,VWS V14.00,2013-07-22 17:05:00,
2013-07-22 12:08:00,80.0,69.8,29.68,SE,145,5.0,10.0,71,0.00,,---,0.00,VWS V14.00,2013-07-22 17:08:00,
2013-07-22 12:10:00,80.0,69.3,29.68,SSE,148,1.0,10.0,70,0.00,,---,0.00,VWS V14.00,2013-07-22 17:10:00,
2013-07-22 12:13:00,80.2,69.9,29.68,South,179,0.0,7.0,71,0.00,,---,0.00,VWS V14.00,2013-07-22 17:13:00,
2013-07-22 12:15:00,80.3,70.1,29.68,SSE,161,0.0,7.0,71,0.00,,---,0.00,VWS V14.00,2013-07-22 17:15:00,
2013-07-22 12:18:00,80.5,69.8,29.68,South,189,0.0,4.0,70,0.00,,---,0.00,VWS V14.00,2013-07-22 17:18:00,
2013-07-22 12:20:00,80.6,69.9,29.68,WNW,293,0.0,4.0,70,0.00,,---,0.00,VWS V14.00,2013-07-22 17:20:00,
2013-07-22 12:23:00,80.4,69.3,29.68,West,271,0.0,7.0,69,0.00,,---,0.00,VWS V14.00,2013-07-22 17:23:00,
2013-07-22 12:25:00,80.4,68.0,29.67,West,271,0.0,7.0,66,0.00,,---,0.00,VWS V14.00,2013-07-22 17:25:00,
2013-07-22 12:28:00,80.8,70.5,29.67,SSE,162,3.0,5.0,71,0.00,,---,0.00,VWS V14.00,2013-07-22 17:28:00,
2013-07-22 12:30:00,80.8,68.8,29.67,SSE,165,7.0,9.0,67,0.00,,---,0.00,VWS V14.00,2013-07-22 17:30:00,
2013-07-22 12:33:00,80.7,69.6,29.67,South,178,1.0,8.0,69,0.00,,---,0.00,VWS V14.00,2013-07-22 17:33:00,
2013-07-22 12:35:00,80.8,70.1,29.67,South,179,0.0,8.0,70,0.00,,---,0.00,VWS V14.00,2013-07-22 17:35:00,
2013-07-22 12:38:00,81.0,70.3,29.67,SE,146,3.0,6.0,70,0.00,,---,0.00,VWS V14.00,2013-07-22 17:38:00,
2013-07-22 12:40:00,81.0,69.4,29.67,South,169,2.0,6.0,68,0.00,,---,0.00,VWS V14.00,2013-07-22 17:40:00,
2013-07-22 12:43:00,81.2,69.2,29.67,SSE,165,1.0,6.0,67,0.00,,---,0.00,VWS V14.00,2013-07-22 17:43:00,
2013-07-22 12:45:00,81.3,69.7,29.67,SSE,163,4.0,6.0,68,0.00,,---,0.00,VWS V14.00,2013-07-22 17:45:00,
2013-07-22 12:48:00,81.4,69.4,29.66,SSE,161,7.0,14.0,67,0.00,,---,0.00,VWS V14.00,2013-07-22 17:48:00,
2013-07-22 12:50:00,81.3,69.7,29.66,SSE,162,2.0,14.0,68,0.00,,---,0.00,VWS V14.00,2013-07-22 17:50:00,
2013-07-22 12:53:00,81.4,69.4,29.66,SSW,192,6.0,8.0,67,0.00,,---,0.00,VWS V14.00,2013-07-22 17:53:00,
2013-07-22 12:55:00,81.3,69.3,29.66,SSE,157,3.0,8.0,67,0.00,,---,0.00,VWS V14.00,2013-07-22 17:55:00,
2013-07-22 12:58:00,81.0,69.4,29.65,South,182,5.0,9.0,68,0.00,,---,0.00,VWS V14.00,2013-07-22 17:58:00,
2013-07-22 13:00:00,81.0,69.4,29.65,South,171,5.0,9.0,68,0.00,,---,0.00,VWS V14.00,2013-07-22 18:00:00,
2013-07-22 13:03:00,81.2,70.5,29.65,South,183,0.0,9.0,70,0.00,,---,0.00,VWS V14.00,2013-07-22 18:03:00,
2013-07-22 13:05:00,81.3,70.2,29.65,SE,142,5.0,9.0,69,0.00,,---,0.00,VWS V14.00,2013-07-22 18:05:00,
2013-07-22 13:08:00,81.5,70.4,29.65,SE,144,6.0,10.0,69,0.00,,---,0.00,VWS V14.00,2013-07-22 18:08:00,
2013-07-22 13:10:00,81.7,70.1,29.65,South,179,2.0,10.0,68,0.00,,---,0.00,VWS V14.00,2013-07-22 18:10:00,
2013-07-22 13:14:00,81.5,69.1,29.64,South,175,5.0,11.0,66,0.00,,---,0.00,VWS V14.00,2013-07-22 18:14:00,
2013-07-22 13:15:00,81.6,69.2,29.64,SSE,153,4.0,11.0,66,0.00,,---,0.00,VWS V14.00,2013-07-22 18:15:00,
2013-07-22 13:19:00,81.8,70.6,29.64,SSE,161,4.0,7.0,69,0.00,,---,0.00,VWS V14.00,2013-07-22 18:19:00,
2013-07-22 13:20:00,81.9,70.7,29.64,South,175,0.0,7.0,69,0.00,,---,0.00,VWS V14.00,2013-07-22 18:20:00,
2013-07-22 13:24:00,82.1,69.6,29.64,SSW,205,2.0,13.0,66,0.00,,---,0.00,VWS V14.00,2013-07-22 18:24:00,
2013-07-22 13:25:00,82.1,69.6,29.64,SSW,205,2.0,13.0,66,0.00,,---,0.00,VWS V14.00,2013-07-22 18:25:00,
2013-07-22 13:29:00,82.1,69.6,29.64,SSE,158,3.0,6.0,66,0.00,,---,0.00,VWS V14.00,2013-07-22 18:29:00,
2013-07-22 13:30:00,82.1,69.6,29.64,SSE,158,3.0,6.0,66,0.00,,---,0.00,VWS V14.00,2013-07-22 18:30:00,
2013-07-22 13:34:00,82.3,69.8,29.64,South,180,0.0,14.0,66,0.00,,---,0.00,VWS V14.00,2013-07-22 18:34:00,
2013-07-22 13:35:00,82.3,69.8,29.64,South,180,0.0,14.0,66,0.00,,---,0.00,VWS V14.00,2013-07-22 18:35:00,
2013-07-22 13:39:00,82.2,70.2,29.64,SSE,160,3.0,11.0,67,0.00,,---,0.00,VWS V14.00,2013-07-22 18:39:00,
2013-07-22 13:40:00,82.2,70.2,29.64,SSE,160,3.0,11.0,67,0.00,,---,0.00,VWS V14.00,2013-07-22 18:40:00,
2013-07-22 13:44:00,82.2,69.3,29.63,SW,227,4.0,10.0,65,0.00,,---,0.00,VWS V14.00,2013-07-22 18:44:00,
2013-07-22 13:45:00,82.2,69.3,29.63,SW,227,4.0,10.0,65,0.00,,---,0.00,VWS V14.00,2013-07-22 18:45:00,
2013-07-22 13:49:00,82.2,69.7,29.63,South,173,4.0,10.0,66,0.00,,---,0.00,VWS V14.00,2013-07-22 18:49:00,
2013-07-22 13:50:00,82.2,69.7,29.63,South,173,4.0,10.0,66,0.00,,---,0.00,VWS V14.00,2013-07-22 18:50:00,
2013-07-22 13:54:00,82.5,70.9,29.62,South,180,6.0,9.0,68,0.00,,---,0.00,VWS V14.00,2013-07-22 18:54:00,
2013-07-22 13:55:00,82.5,70.9,29.62,South,180,6.0,9.0,68,0.00,,---,0.00,VWS V14.00,2013-07-22 18:55:00,
2013-07-22 13:59:00,82.9,70.8,29.62,South,191,1.0,9.0,67,0.00,,---,0.00,VWS V14.00,2013-07-22 18:59:00,
2013-07-22 14:00:00,82.9,70.8,29.62,South,191,1.0,9.0,67,0.00,,---,0.00,VWS V14.00,2013-07-22 19:00:00,
2013-07-22 14:04:00,82.9,69.9,29.62,SE,127,2.0,10.0,65,0.00,,---,0.00,VWS V14.00,2013-07-22 19:04:00,
2013-07-22 14:05:00,82.9,69.9,29.62,SE,127,2.0,10.0,65,0.00,,---,0.00,VWS V14.00,2013-07-22 19:05:00,
2013-07-22 14:09:00,82.9,70.4,29.62,SSE,167,4.0,11.0,66,0.00,,---,0.00,VWS V14.00,2013-07-22 19:09:00,
2013-07-22 14:10:00,83.0,70.9,29.62,South,170,2.0,11.0,67,0.00,,---,0.00,VWS V14.00,2013-07-22 19:10:00,
2013-07-22 14:14:00,83.0,70.5,29.62,South,173,2.0,11.0,66,0.00,,---,0.00,VWS V14.00,2013-07-22 19:14:00,
2013-07-22 14:15:00,83.0,70.5,29.62,South,173,2.0,11.0,66,0.00,,---,0.00,VWS V14.00,2013-07-22 19:15:00,
2013-07-22 14:19:00,83.4,72.2,29.62,South,179,1.0,5.0,69,0.00,,---,0.00,VWS V14.00,2013-07-22 19:19:00,
2013-07-22 14:20:00,83.4,72.2,29.62,South,179,1.0,5.0,69,0.00,,---,0.00,VWS V14.00,2013-07-22 19:20:00,
2013-07-22 14:24:00,83.8,71.2,29.61,SSE,166,4.0,9.0,66,0.00,,---,0.00,VWS V14.00,2013-07-22 19:24:00,
2013-07-22 14:25:00,83.8,71.2,29.61,SSE,166,4.0,9.0,66,0.00,,---,0.00,VWS V14.00,2013-07-22 19:25:00,
2013-07-22 14:29:00,84.0,71.4,29.61,South,178,3.0,3.0,66,0.00,,---,0.00,VWS V14.00,2013-07-22 19:29:00,
2013-07-22 14:30:00,84.0,71.4,29.61,SSW,196,3.0,12.0,66,0.00,,---,0.00,VWS V14.00,2013-07-22 19:30:00,
2013-07-22 14:34:00,83.6,70.1,29.61,SSE,162,2.0,11.0,64,0.00,,---,0.00,VWS V14.00,2013-07-22 19:34:00,
2013-07-22 14:35:00,83.6,70.1,29.61,SSE,161,1.0,11.0,64,0.00,,---,0.00,VWS V14.00,2013-07-22 19:35:00,
2013-07-22 14:39:00,83.3,70.3,29.61,SSE,153,5.0,5.0,65,0.00,,---,0.00,VWS V14.00,2013-07-22 19:39:00,
2013-07-22 14:40:00,83.3,70.3,29.61,SSE,156,3.0,10.0,65,0.00,,---,0.00,VWS V14.00,2013-07-22 19:40:00,
2013-07-22 14:44:00,83.4,70.9,29.61,SSE,150,3.0,3.0,66,0.00,,---,0.00,VWS V14.00,2013-07-22 19:44:00,
2013-07-22 14:45:00,83.4,70.9,29.61,SSE,148,0.0,15.0,66,0.00,,---,0.00,VWS V14.00,2013-07-22 19:45:00,
2013-07-22 14:49:00,83.9,71.3,29.61,SSE,163,5.0,6.0,66,0.00,,---,0.00,VWS V14.00,2013-07-22 19:49:00,
2013-07-22 14:50:00,83.9,71.3,29.61,SSE,165,1.0,15.0,66,0.00,,---,0.00,VWS V14.00,2013-07-22 19:50:00,
2013-07-22 14:54:00,84.3,72.2,29.60,South,184,7.0,9.0,67,0.00,,---,0.00,VWS V14.00,2013-07-22 19:54:00,
2013-07-22 14:55:00,84.3,72.2,29.60,SSE,165,4.0,6.0,67,0.00,,---,0.00,VWS V14.00,2013-07-22 19:55:00,
2013-07-22 15:00:00,84.1,70.6,29.60,SSE,166,2.0,10.0,64,0.00,,---,0.00,VWS V14.00,2013-07-22 20:00:00,
2013-07-22 15:05:00,84.0,71.4,29.60,SSE,167,10.0,12.0,66,0.00,,---,0.00,VWS V14.00,2013-07-22 20:05:00,
2013-07-22 15:10:00,84.0,71.0,29.60,South,178,2.0,2.0,65,0.00,,---,0.00,VWS V14.00,2013-07-22 20:10:00,
2013-07-22 15:15:00,84.2,70.7,29.60,SE,138,9.0,10.0,64,0.00,,---,0.00,VWS V14.00,2013-07-22 20:15:00,
2013-07-22 15:16:00,84.3,71.3,29.60,SSE,150,4.0,11.0,65,0.00,,---,0.00,VWS V14.00,2013-07-22 20:16:00,
2013-07-22 15:17:00,84.3,71.3,29.60,SSE,148,5.0,11.0,65,0.00,,---,0.00,VWS V14.00,2013-07-22 20:17:00,
2013-07-22 15:18:00,84.4,71.4,29.60,South,171,3.0,14.0,65,0.00,,---,0.00,VWS V14.00,2013-07-22 20:18:00,
2013-07-22 15:20:00,84.4,70.9,29.60,West,277,4.0,14.0,64,0.00,,---,0.00,VWS V14.00,2013-07-22 20:20:00,
2013-07-22 15:23:00,84.2,70.7,29.60,WSW,237,2.0,10.0,64,0.00,,---,0.00,VWS V14.00,2013-07-22 20:23:00,
2013-07-22 15:25:00,84.2,71.6,29.60,SE,144,2.0,10.0,66,0.00,,---,0.00,VWS V14.00,2013-07-22 20:25:00,
2013-07-22 15:28:00,84.5,71.4,29.60,SSE,164,6.0,13.0,65,0.00,,---,0.00,VWS V14.00,2013-07-22 20:28:00,
2013-07-22 15:30:00,84.5,71.4,29.60,SSE,148,5.0,13.0,65,0.00,,---,0.00,VWS V14.00,2013-07-22 20:30:00,
2013-07-22 15:33:00,84.6,72.0,29.60,South,171,2.0,12.0,66,0.00,,---,0.00,VWS V14.00,2013-07-22 20:33:00,
2013-07-22 15:35:00,84.8,71.7,29.60,SSW,195,6.0,12.0,65,0.00,,---,0.00,VWS V14.00,2013-07-22 20:35:00,
2013-07-22 15:38:00,84.8,70.8,29.60,South,169,2.0,11.0,63,0.00,,---,0.00,VWS V14.00,2013-07-22 20:38:00,
2013-07-22 15:40:00,84.8,71.3,29.60,SSE,147,0.0,11.0,64,0.00,,---,0.00,VWS V14.00,2013-07-22 20:40:00,
2013-07-22 15:43:00,84.6,70.2,29.60,SSW,209,7.0,12.0,62,0.00,,---,0.00,VWS V14.00,2013-07-22 20:43:00,
2013-07-22 15:45:00,84.5,70.5,29.60,ESE,109,3.0,12.0,63,0.00,,---,0.00,VWS V14.00,2013-07-22 20:45:00,
2013-07-22 15:48:00,84.4,70.4,29.60,South,186,5.0,6.0,63,0.00,,---,0.00,VWS V14.00,2013-07-22 20:48:00,
2013-07-22 15:50:00,84.5,70.5,29.60,SSE,150,6.0,14.0,63,0.00,,---,0.00,VWS V14.00,2013-07-22 20:50:00,
2013-07-22 15:53:00,84.7,71.2,29.61,SW,219,0.0,6.0,64,0.00,,---,0.00,VWS V14.00,2013-07-22 20:53:00,
2013-07-22 15:55:00,84.7,71.2,29.61,SW,219,0.0,6.0,64,0.00,,---,0.00,VWS V14.00,2013-07-22 20:55:00,
2013-07-22 15:58:00,85.1,71.1,29.60,SW,222,1.0,4.0,63,0.00,,---,0.00,VWS V14.00,2013-07-22 20:58:00,
2013-07-22 16:00:00,85.1,71.6,29.60,South,180,0.0,4.0,64,0.00,,---,0.00,VWS V14.00,2013-07-22 21:00:00,
2013-07-22 16:03:00,85.2,70.7,29.60,SSW,207,0.0,6.0,62,0.00,,---,0.00,VWS V14.00,2013-07-22 21:03:00,
2013-07-22 16:05:00,85.2,70.7,29.60,SW,215,2.0,6.0,62,0.00,,---,0.00,VWS V14.00,2013-07-22 21:05:00,
2013-07-22 16:09:00,85.2,71.2,29.60,SW,214,4.0,6.0,63,0.00,,---,0.00,VWS V14.00,2013-07-22 21:09:00,
2013-07-22 16:10:00,85.2,71.2,29.60,South,190,3.0,6.0,63,0.00,,---,0.00,VWS V14.00,2013-07-22 21:10:00,
2013-07-22 16:13:00,84.8,70.8,29.60,WSW,254,2.0,9.0,63,0.00,,---,0.00,VWS V14.00,2013-07-22 21:13:00,
2013-07-22 16:15:00,84.8,70.8,29.60,SW,225,1.0,9.0,63,0.00,,---,0.00,VWS V14.00,2013-07-22 21:15:00,
2013-07-22 16:18:00,84.5,71.4,29.60,South,180,0.0,10.0,65,0.00,,---,0.00,VWS V14.00,2013-07-22 21:18:00,
2013-07-22 16:20:00,84.5,71.9,29.60,South,184,1.0,10.0,66,0.00,,---,0.00,VWS V14.00,2013-07-22 21:20:00,
2013-07-22 16:23:00,84.7,71.6,29.59,South,172,5.0,7.0,65,0.00,,---,0.00,VWS V14.00,2013-07-22 21:23:00,
2013-07-22 16:25:00,84.7,71.6,29.59,South,181,3.0,7.0,65,0.00,,---,0.00,VWS V14.00,2013-07-22 21:25:00,
2013-07-22 16:29:00,84.8,70.8,29.59,WSW,248,1.0,10.0,63,0.00,,---,0.00,VWS V14.00,2013-07-22 21:29:00,
2013-07-22 16:30:00,84.8,71.3,29.59,WSW,241,0.0,10.0,64,0.00,,---,0.00,VWS V14.00,2013-07-22 21:30:00,
2013-07-22 16:34:00,85.3,71.8,29.59,SSE,150,1.0,2.0,64,0.00,,---,0.00,VWS V14.00,2013-07-22 21:34:00,
2013-07-22 16:35:00,85.4,71.8,29.59,SSW,211,1.0,3.0,64,0.00,,---,0.00,VWS V14.00,2013-07-22 21:35:00,
2013-07-22 16:39:00,85.5,71.5,29.58,NW,321,4.0,7.0,63,0.00,,---,0.00,VWS V14.00,2013-07-22 21:39:00,
2013-07-22 16:40:00,85.5,71.9,29.58,SW,234,0.0,7.0,64,0.00,,---,0.00,VWS V14.00,2013-07-22 21:40:00,
2013-07-22 16:44:00,85.3,71.3,29.58,SE,141,3.0,11.0,63,0.00,,---,0.00,VWS V14.00,2013-07-22 21:44:00,
2013-07-22 16:45:00,85.2,71.2,29.58,South,190,2.0,11.0,63,0.00,,---,0.00,VWS V14.00,2013-07-22 21:45:00,
2013-07-22 16:49:00,84.5,71.0,29.58,SSE,168,3.0,10.0,64,0.00,,---,0.00,VWS V14.00,2013-07-22 21:49:00,
2013-07-22 16:50:00,84.4,70.9,29.58,South,169,1.0,10.0,64,0.00,,---,0.00,VWS V14.00,2013-07-22 21:50:00,
2013-07-22 16:54:00,84.1,71.1,29.58,SSE,167,0.0,5.0,65,0.00,,---,0.00,VWS V14.00,2013-07-22 21:54:00,
2013-07-22 16:55:00,84.1,71.1,29.58,SSE,167,0.0,5.0,65,0.00,,---,0.00,VWS V14.00,2013-07-22 21:55:00,
2013-07-22 16:59:00,84.5,71.0,29.58,South,187,0.0,6.0,64,0.00,,---,0.00,VWS V14.00,2013-07-22 21:59:00,
2013-07-22 17:00:00,84.5,71.4,29.58,South,183,0.0,6.0,65,0.00,,---,0.00,VWS V14.00,2013-07-22 22:00:00,
2013-07-22 17:04:00,84.8,71.3,29.58,SSE,151,2.0,11.0,64,0.00,,---,0.00,VWS V14.00,2013-07-22 22:04:00,
2013-07-22 17:05:00,84.9,71.4,29.58,SSE,168,1.0,11.0,64,0.00,,---,0.00,VWS V14.00,2013-07-22 22:05:00,
2013-07-22 17:09:00,84.8,71.3,29.58,SSE,155,3.0,6.0,64,0.00,,---,0.00,VWS V14.00,2013-07-22 22:09:00,
2013-07-22 17:10:00,84.7,71.6,29.58,SSE,147,9.0,9.0,65,0.00,,---,0.00,VWS V14.00,2013-07-22 22:10:00,
2013-07-22 17:14:00,84.6,71.1,29.59,South,181,3.0,10.0,64,0.00,,---,0.00,VWS V14.00,2013-07-22 22:14:00,
2013-07-22 17:15:00,84.5,71.0,29.59,South,182,0.0,10.0,64,0.00,,---,0.00,VWS V14.00,2013-07-22 22:15:00,
2013-07-22 17:19:00,84.2,71.6,29.59,SSW,206,0.0,4.0,66,0.00,,---,0.00,VWS V14.00,2013-07-22 22:19:00,
2013-07-22 17:20:00,84.2,71.6,29.59,SSW,207,0.0,4.0,66,0.00,,---,0.00,VWS V14.00,2013-07-22 22:20:00,
2013-07-22 17:24:00,83.9,71.3,29.58,SW,222,1.0,5.0,66,0.00,,---,0.00,VWS V14.00,2013-07-22 22:24:00,
2013-07-22 17:25:00,83.9,71.3,29.58,South,170,1.0,5.0,66,0.00,,---,0.00,VWS V14.00,2013-07-22 22:25:00,
2013-07-22 17:29:00,83.7,71.1,29.58,West,263,0.0,6.0,66,0.00,,---,0.00,VWS V14.00,2013-07-22 22:29:00,
2013-07-22 17:30:00,83.7,71.6,29.58,West,263,0.0,6.0,67,0.00,,---,0.00,VWS V14.00,2013-07-22 22:30:00,
2013-07-22 17:34:00,83.6,71.5,29.58,SW,221,1.0,5.0,67,0.00,,---,0.00,VWS V14.00,2013-07-22 22:34:00,
2013-07-22 17:35:00,83.5,71.4,29.58,WSW,254,0.0,5.0,67,0.00,,---,0.00,VWS V14.00,2013-07-22 22:35:00,
2013-07-22 17:39:00,83.4,71.3,29.58,WSW,248,0.0,6.0,67,0.00,,---,0.00,VWS V14.00,2013-07-22 22:39:00,
2013-07-22 17:40:00,83.3,71.2,29.58,WSW,253,1.0,6.0,67,0.00,,---,0.00,VWS V14.00,2013-07-22 22:40:00,
2013-07-22 17:44:00,83.1,71.4,29.59,West,270,4.0,5.0,68,0.00,,---,0.00,VWS V14.00,2013-07-22 22:44:00,
2013-07-22 17:45:00,83.1,71.4,29.59,West,268,0.0,5.0,68,0.00,,---,0.00,VWS V14.00,2013-07-22 22:45:00,
2013-07-22 17:49:00,82.8,71.2,29.58,SSW,210,0.0,5.0,68,0.00,,---,0.00,VWS V14.00,2013-07-22 22:49:00,
2013-07-22 17:50:00,82.8,71.2,29.58,SSW,210,0.0,5.0,68,0.00,,---,0.00,VWS V14.00,2013-07-22 22:50:00,
2013-07-22 17:54:00,82.8,71.2,29.59,West,259,1.0,2.0,68,0.00,,---,0.00,VWS V14.00,2013-07-22 22:54:00,
2013-07-22 17:55:00,82.8,71.2,29.59,West,259,0.0,2.0,68,0.00,,---,0.00,VWS V14.00,2013-07-22 22:55:00,
2013-07-22 17:59:00,82.8,71.6,29.58,WSW,256,0.0,3.0,69,0.00,,---,0.00,VWS V14.00,2013-07-22 22:59:00,
2013-07-22 18:00:00,82.8,71.6,29.58,WSW,245,3.0,3.0,69,0.00,,---,0.00,VWS V14.00,2013-07-22 23:00:00,
2013-07-22 18:04:00,82.6,71.4,29.58,SSW,202,1.0,4.0,69,0.00,,---,0.00,VWS V14.00,2013-07-22 23:04:00,
2013-07-22 18:05:00,82.6,71.4,29.58,SSW,202,0.0,4.0,69,0.00,,---,0.00,VWS V14.00,2013-07-22 23:05:00,
2013-07-22 18:09:00,82.4,71.2,29.58,SSW,200,0.0,3.0,69,0.00,,---,0.00,VWS V14.00,2013-07-22 23:09:00,
2013-07-22 18:10:00,82.4,71.6,29.58,SSW,200,0.0,3.0,70,0.00,,---,0.00,VWS V14.00,2013-07-22 23:10:00,
2013-07-22 18:14:00,82.2,71.4,29.58,SSW,210,0.0,6.0,70,0.00,,---,0.00,VWS V14.00,2013-07-22 23:14:00,
2013-07-22 18:15:00,82.2,71.4,29.58,SW,214,1.0,6.0,70,0.00,,---,0.00,VWS V14.00,2013-07-22 23:15:00,
2013-07-22 18:19:00,82.0,71.3,29.58,SW,233,0.0,4.0,70,0.00,,---,0.00,VWS V14.00,2013-07-22 23:19:00,
2013-07-22 18:20:00,82.0,71.3,29.58,SW,233,0.0,4.0,70,0.00,,---,0.00,VWS V14.00,2013-07-22 23:20:00,
2013-07-22 18:24:00,81.9,71.2,29.58,SW,232,0.0,2.0,70,0.00,,---,0.00,VWS V14.00,2013-07-22 23:24:00,
2013-07-22 18:25:00,81.9,71.2,29.58,SW,232,0.0,2.0,70,0.00,,---,0.00,VWS V14.00,2013-07-22 23:25:00,
2013-07-22 18:29:00,81.7,71.4,29.58,SW,227,0.0,1.0,71,0.00,,---,0.00,VWS V14.00,2013-07-22 23:29:00,
2013-07-22 18:30:00,81.6,71.3,29.58,SW,227,0.0,1.0,71,0.00,,---,0.00,VWS V14.00,2013-07-22 23:30:00,
2013-07-22 18:34:00,81.4,73.1,29.58,SW,227,0.0,1.0,76,0.03,,---,0.03,VWS V14.00,2013-07-22 23:34:00,
2013-07-22 18:35:00,81.4,73.1,29.58,SW,227,0.0,1.0,76,0.04,,---,0.04,VWS V14.00,2013-07-22 23:35:00,
2013-07-22 18:39:00,80.5,73.0,29.58,SW,225,0.0,1.0,78,0.08,,---,0.08,VWS V14.00,2013-07-22 23:39:00,
2013-07-22 18:40:00,80.4,72.9,29.58,SW,225,0.0,1.0,78,0.08,,---,0.08,VWS V14.00,2013-07-22 23:40:00,
2013-07-22 18:44:00,79.3,73.3,29.58,SW,225,0.0,0.0,82,0.09,,---,0.09,VWS V14.00,2013-07-22 23:44:00,
2013-07-22 18:45:00,79.3,73.3,29.58,SW,225,0.0,0.0,82,0.09,,---,0.09,VWS V14.00,2013-07-22 23:45:00,
2013-07-22 18:49:00,78.3,72.7,29.58,SW,225,0.0,1.0,83,0.09,,---,0.09,VWS V14.00,2013-07-22 23:49:00,
2013-07-22 18:50:00,78.3,72.7,29.58,SW,225,0.0,1.0,83,0.09,,---,0.09,VWS V14.00,2013-07-22 23:50:00,
2013-07-22 18:54:00,77.5,73.0,29.59,SW,225,0.0,1.0,86,0.09,,---,0.09,VWS V14.00,2013-07-22 23:54:00,
2013-07-22 18:55:00,77.5,73.0,29.59,SW,225,0.0,1.0,86,0.09,,---,0.09,VWS V14.00,2013-07-22 23:55:00,
2013-07-22 18:59:00,76.9,72.7,29.60,SW,225,0.0,1.0,87,0.09,,---,0.09,VWS V14.00,2013-07-22 23:59:00,
2013-07-22 19:00:00,76.9,72.7,29.60,SW,225,0.0,1.0,87,0.09,,---,0.09,VWS V14.00,2013-07-23 00:00:00,
2013-07-22 19:04:00,76.6,72.8,29.61,SW,225,0.0,1.0,88,0.09,,---,0.09,VWS V14.00,2013-07-23 00:04:00,
2013-07-22 19:05:00,76.6,72.8,29.61,SW,225,0.0,1.0,88,0.09,,---,0.09,VWS V14.00,2013-07-23 00:05:00,
2013-07-22 19:09:00,76.3,72.8,29.60,SW,225,0.0,1.0,89,0.09,,---,0.09,VWS V14.00,2013-07-23 00:09:00,
2013-07-22 19:10:00,76.3,72.8,29.60,SW,225,0.0,1.0,89,0.09,,---,0.09,VWS V14.00,2013-07-23 00:10:00,
2013-07-22 19:14:00,76.1,73.0,29.61,SW,227,0.0,1.0,90,0.09,,---,0.09,VWS V14.00,2013-07-23 00:14:00,
2013-07-22 19:15:00,76.1,73.0,29.61,SW,227,0.0,1.0,90,0.09,,---,0.09,VWS V14.00,2013-07-23 00:15:00,
2013-07-22 19:19:00,75.9,72.8,29.61,SW,227,0.0,1.0,90,0.10,,---,0.10,VWS V14.00,2013-07-23 00:19:00,
2013-07-22 19:20:00,75.9,72.8,29.61,SW,227,0.0,1.0,90,0.10,,---,0.10,VWS V14.00,2013-07-23 00:20:00,
2013-07-22 19:24:00,75.8,73.0,29.61,SW,227,0.0,1.0,91,0.12,,---,0.12,VWS V14.00,2013-07-23 00:24:00,
2013-07-22 19:25:00,75.8,73.0,29.61,SW,227,0.0,1.0,91,0.12,,---,0.12,VWS V14.00,2013-07-23 00:25:00,
2013-07-22 19:29:00,75.5,72.7,29.61,SW,227,0.0,1.0,91,0.13,,---,0.13,VWS V14.00,2013-07-23 00:29:00,
2013-07-22 19:30:00,75.5,72.7,29.61,SW,227,0.0,1.0,91,0.13,,---,0.13,VWS V14.00,2013-07-23 00:30:00,
2013-07-22 19:34:00,75.4,72.9,29.60,SW,227,0.0,0.0,92,0.14,,---,0.14,VWS V14.00,2013-07-23 00:34:00,
2013-07-22 19:35:00,75.4,72.9,29.60,SW,227,0.0,0.0,92,0.14,,---,0.14,VWS V14.00,2013-07-23 00:35:00,
2013-07-22 19:39:00,75.2,72.7,29.60,SW,227,0.0,0.0,92,0.10,,---,0.14,VWS V14.00,2013-07-23 00:39:00,
2013-07-22 19:40:00,75.2,72.7,29.60,SW,227,0.0,0.0,92,0.10,,---,0.14,VWS V14.00,2013-07-23 00:40:00,
2013-07-22 19:44:00,75.1,72.9,29.60,SW,227,0.0,0.0,93,0.06,,---,0.14,VWS V14.00,2013-07-23 00:44:00,
2013-07-22 19:45:00,75.1,72.9,29.60,SW,227,0.0,0.0,93,0.06,,---,0.14,VWS V14.00,2013-07-23 00:45:00,
2013-07-22 19:49:00,75.0,72.8,29.59,SW,227,0.0,0.0,93,0.05,,---,0.14,VWS V14.00,2013-07-23 00:49:00,
2013-07-22 19:50:00,75.0,72.8,29.59,SW,227,0.0,0.0,93,0.05,,---,0.14,VWS V14.00,2013-07-23 00:50:00,
2013-07-22 19:54:00,74.9,72.7,29.59,SW,227,0.0,0.0,93,0.05,,---,0.14,VWS V14.00,2013-07-23 00:54:00,
2013-07-22 19:55:00,74.9,72.7,29.59,SW,227,0.0,0.0,93,0.05,,---,0.14,VWS V14.00,2013-07-23 00:55:00,
2013-07-22 19:59:00,74.9,73.1,29.59,SW,227,0.0,1.0,94,0.05,,---,0.14,VWS V14.00,2013-07-23 00:59:00,
2013-07-22 20:00:00,74.9,73.1,29.59,SW,227,0.0,1.0,94,0.05,,---,0.14,VWS V14.00,2013-07-23 01:00:00,
2013-07-22 20:04:00,74.9,73.1,29.59,SW,227,0.0,0.0,94,0.05,,---,0.14,VWS V14.00,2013-07-23 01:04:00,
2013-07-22 20:05:00,74.9,73.1,29.59,SW,227,0.0,1.0,94,0.05,,---,0.14,VWS V14.00,2013-07-23 01:05:00,
2013-07-22 20:09:00,74.7,72.9,29.59,SW,227,1.0,1.0,94,0.05,,---,0.14,VWS V14.00,2013-07-23 01:09:00,
2013-07-22 20:10:00,74.7,72.9,29.59,SW,227,1.0,1.0,94,0.05,,---,0.14,VWS V14.00,2013-07-23 01:10:00,
2013-07-22 20:14:00,74.7,72.9,29.59,NNW,331,0.0,0.0,94,0.05,,---,0.14,VWS V14.00,2013-07-23 01:14:00,
2013-07-22 20:15:00,74.7,72.9,29.59,NNW,331,0.0,4.0,94,0.05,,---,0.14,VWS V14.00,2013-07-23 01:15:00,
2013-07-22 20:19:00,74.6,72.8,29.59,NNW,332,0.0,0.0,94,0.04,,---,0.14,VWS V14.00,2013-07-23 01:19:00,
2013-07-22 20:20:00,74.6,72.8,29.59,NNW,332,0.0,1.0,94,0.05,,---,0.14,VWS V14.00,2013-07-23 01:20:00,
2013-07-22 20:24:00,74.5,72.3,29.62,East,81,1.0,4.0,93,0.05,,---,0.17,VWS V14.00,2013-07-23 01:24:00,
2013-07-22 20:25:00,74.5,72.3,29.63,ENE,70,4.0,14.0,93,0.07,,---,0.17,VWS V14.00,2013-07-23 01:25:00,
2013-07-22 20:29:00,71.2,64.7,29.64,North,360,2.0,2.0,80,0.11,,---,0.24,VWS V14.00,2013-07-23 01:29:00,
2013-07-22 20:30:00,71.2,64.7,29.65,NNW,331,2.0,25.0,80,0.12,,---,0.24,VWS V14.00,2013-07-23 01:30:00,
2013-07-22 20:34:00,69.4,64.0,29.65,West,271,0.0,4.0,83,0.19,,---,0.33,VWS V14.00,2013-07-23 01:34:00,
2013-07-22 20:35:00,69.5,64.1,29.64,West,263,4.0,17.0,83,0.19,,---,0.32,VWS V14.00,2013-07-23 01:35:00,
2013-07-22 20:39:00,68.3,63.6,29.64,South,180,8.0,11.0,85,0.28,,---,0.42,VWS V14.00,2013-07-23 01:39:00,
2013-07-22 20:40:00,68.3,63.3,29.64,SW,214,8.0,12.0,84,0.27,,---,0.41,VWS V14.00,2013-07-23 01:40:00,
2013-07-22 20:44:00,66.0,63.0,29.64,SW,219,12.0,12.0,90,0.36,,---,0.50,VWS V14.00,2013-07-23 01:44:00,
2013-07-22 20:45:00,66.0,62.7,29.64,SSW,205,6.0,16.0,89,0.36,,---,0.50,VWS V14.00,2013-07-23 01:45:00,
2013-07-22 20:49:00,65.5,62.8,29.62,SSW,201,4.0,5.0,91,0.39,,---,0.53,VWS V14.00,2013-07-23 01:49:00,
2013-07-22 20:50:00,65.5,62.8,29.63,SSW,208,5.0,13.0,91,0.39,,---,0.53,VWS V14.00,2013-07-23 01:50:00,
2013-07-22 20:54:00,65.3,62.9,29.59,South,171,1.0,3.0,92,0.44,,---,0.58,VWS V14.00,2013-07-23 01:54:00,
2013-07-22 20:55:00,65.3,62.9,29.60,South,171,2.0,11.0,92,0.44,,---,0.58,VWS V14.00,2013-07-23 01:55:00,
2013-07-22 21:00:00,65.2,62.8,29.58,South,171,0.0,1.0,92,0.45,,---,0.59,VWS V14.00,2013-07-23 02:00:00,
2013-07-22 21:04:00,65.2,63.1,29.60,SSW,205,0.0,3.0,93,0.45,,---,0.59,VWS V14.00,2013-07-23 02:04:00,
2013-07-22 21:05:00,65.2,63.1,29.59,SSW,211,1.0,4.0,93,0.45,,---,0.59,VWS V14.00,2013-07-23 02:05:00,
2013-07-22 21:09:00,65.3,63.2,29.60,SW,217,0.0,0.0,93,0.45,,---,0.59,VWS V14.00,2013-07-23 02:09:00,
2013-07-22 21:10:00,65.3,63.2,29.60,SW,217,0.0,3.0,93,0.45,,---,0.59,VWS V14.00,2013-07-23 02:10:00,
2013-07-22 21:15:00,65.8,63.7,29.59,WNW,287,3.0,3.0,93,0.45,,---,0.59,VWS V14.00,2013-07-23 02:15:00,
2013-07-22 21:20:00,66.5,64.4,29.57,NW,314,0.0,4.0,93,0.45,,---,0.59,VWS V14.00,2013-07-23 02:20:00,
2013-07-22 21:25:00,66.8,64.4,29.57,NW,314,0.0,0.0,92,0.42,,---,0.59,VWS V14.00,2013-07-23 02:25:00,
2013-07-22 21:30:00,66.9,64.5,29.58,NW,307,1.0,1.0,92,0.35,,---,0.59,VWS V14.00,2013-07-23 02:30:00,
2013-07-22 21:35:00,66.9,64.5,29.57,WSW,243,1.0,3.0,92,0.27,,---,0.59,VWS V14.00,2013-07-23 02:35:00,
2013-07-22 21:40:00,67.0,64.3,29.57,WSW,238,0.0,1.0,91,0.18,,---,0.59,VWS V14.00,2013-07-23 02:40:00,
2013-07-22 21:45:00,67.0,64.3,29.53,SSE,159,5.0,8.0,91,0.10,,---,0.60,VWS V14.00,2013-07-23 02:45:00,
2013-07-22 21:50:00,67.0,64.0,29.57,WSW,248,0.0,1.0,90,0.07,,---,0.60,VWS V14.00,2013-07-23 02:50:00,
2013-07-22 21:55:00,67.0,63.7,29.60,WSW,256,0.0,2.0,89,0.02,,---,0.60,VWS V14.00,2013-07-23 02:55:00,
2013-07-22 22:00:00,67.1,63.4,29.59,West,280,0.0,0.0,88,0.01,,---,0.60,VWS V14.00,2013-07-23 03:00:00,
2013-07-22 22:05:00,67.5,63.2,29.57,WSW,238,0.0,3.0,86,0.01,,---,0.60,VWS V14.00,2013-07-23 03:05:00,
2013-07-22 22:10:00,68.0,63.0,29.57,WNW,290,4.0,5.0,84,0.01,,---,0.60,VWS V14.00,2013-07-23 03:10:00,
2013-07-22 22:15:00,68.3,62.9,29.57,NW,322,0.0,6.0,83,0.01,,---,0.60,VWS V14.00,2013-07-23 03:15:00,
2013-07-22 22:20:00,68.4,62.7,29.57,SSE,168,0.0,0.0,82,0.01,,---,0.60,VWS V14.00,2013-07-23 03:20:00,
2013-07-22 22:25:00,68.4,62.3,29.58,NW,326,1.0,3.0,81,0.01,,---,0.60,VWS V14.00,2013-07-23 03:25:00,
2013-07-22 22:30:00,68.4,62.7,29.58,NNW,339,0.0,0.0,82,0.01,,---,0.60,VWS V14.00,2013-07-23 03:30:00,
2013-07-22 22:35:00,68.3,63.3,29.58,NW,310,0.0,0.0,84,0.01,,---,0.60,VWS V14.00,2013-07-23 03:35:00,
2013-07-22 22:40:00,68.0,63.3,29.59,NW,310,0.0,0.0,85,0.01,,---,0.60,VWS V14.00,2013-07-23 03:40:00,
2013-07-22 22:45:00,67.6,63.3,29.60,NW,311,0.0,1.0,86,0.01,,---,0.60,VWS V14.00,2013-07-23 03:45:00,
2013-07-22 22:50:00,67.1,63.1,29.60,NW,311,0.0,0.0,87,0.00,,---,0.60,VWS V14.00,2013-07-23 03:50:00,
2013-07-22 22:55:00,67.1,63.1,29.60,NW,311,0.0,0.0,87,0.00,,---,0.60,VWS V14.00,2013-07-23 03:55:00,
2013-07-22 23:00:00,67.2,63.5,29.60,NW,311,0.0,0.0,88,0.00,,---,0.60,VWS V14.00,2013-07-23 04:00:00,
2013-07-22 23:01:00,67.2,63.5,29.60,NW,310,0.0,0.0,88,0.00,,---,0.60,VWS V14.00,2013-07-23 04:01:00,
2013-07-22 23:05:00,67.1,63.4,29.61,NW,309,0.0,1.0,88,0.00,,---,0.60,VWS V14.00,2013-07-23 04:05:00,
2013-07-22 23:06:00,67.0,63.3,29.61,SSW,204,1.0,6.0,88,0.00,,---,0.60,VWS V14.00,2013-07-23 04:06:00,
2013-07-22 23:10:00,67.1,62.8,29.61,SSW,207,4.0,6.0,86,0.00,,---,0.60,VWS V14.00,2013-07-23 04:10:00,
2013-07-22 23:11:00,67.2,62.5,29.61,SW,219,1.0,4.0,85,0.00,,---,0.60,VWS V14.00,2013-07-23 04:11:00,
2013-07-22 23:15:00,67.5,62.5,29.61,WSW,244,0.0,5.0,84,0.00,,---,0.60,VWS V14.00,2013-07-23 04:15:00,
2013-07-22 23:16:00,67.5,62.5,29.61,WSW,244,3.0,3.0,84,0.00,,---,0.60,VWS V14.00,2013-07-23 04:16:00,
2013-07-22 23:20:00,67.7,62.4,29.62,South,179,2.0,6.0,83,0.00,,---,0.60,VWS V14.00,2013-07-23 04:20:00,
2013-07-22 23:21:00,67.8,62.5,29.62,South,179,0.0,2.0,83,0.00,,---,0.60,VWS V14.00,2013-07-23 04:21:00,
2013-07-22 23:25:00,67.8,62.1,29.62,West,267,4.0,4.0,82,0.00,,---,0.60,VWS V14.00,2013-07-23 04:25:00,
2013-07-22 23:26:00,67.8,62.1,29.62,WSW,258,0.0,5.0,82,0.00,,---,0.60,VWS V14.00,2013-07-23 04:26:00,
2013-07-22 23:30:00,67.8,62.1,29.62,WSW,253,1.0,5.0,82,0.00,,---,0.60,VWS V14.00,2013-07-23 04:30:00,
2013-07-22 23:31:00,67.8,62.1,29.62,SW,229,1.0,2.0,82,0.00,,---,0.60,VWS V14.00,2013-07-23 04:31:00,
2013-07-22 23:35:00,67.8,62.1,29.62,SSW,207,5.0,5.0,82,0.00,,---,0.60,VWS V14.00,2013-07-23 04:35:00,
2013-07-22 23:36:00,67.7,61.7,29.62,SSW,202,1.0,5.0,81,0.00,,---,0.60,VWS V14.00,2013-07-23 04:36:00,
2013-07-22 23:40:00,67.7,61.7,29.62,SSW,198,3.0,5.0,81,0.00,,---,0.60,VWS V14.00,2013-07-23 04:40:00,
2013-07-22 23:41:00,67.6,61.6,29.62,SSW,211,0.0,4.0,81,0.00,,---,0.60,VWS V14.00,2013-07-23 04:41:00,
2013-07-22 23:45:00,67.5,61.5,29.62,WSW,238,0.0,4.0,81,0.00,,---,0.60,VWS V14.00,2013-07-23 04:45:00,
2013-07-22 23:46:00,67.5,61.8,29.62,WNW,284,0.0,3.0,82,0.00,,---,0.60,VWS V14.00,2013-07-23 04:46:00,
2013-07-22 23:50:00,67.4,62.1,29.62,WNW,283,0.0,3.0,83,0.00,,---,0.60,VWS V14.00,2013-07-23 04:50:00,
2013-07-22 23:51:00,67.3,62.0,29.62,WNW,284,0.0,3.0,83,0.00,,---,0.60,VWS V14.00,2013-07-23 04:51:00,
2013-07-22 23:55:00,67.2,61.9,29.62,WNW,283,0.0,3.0,83,0.00,,---,0.60,VWS V14.00,2013-07-23 04:55:00,
2013-07-22 23:56:00,67.2,61.9,29.62,WNW,283,0.0,2.0,83,0.00,,---,0.60,VWS V14.00,2013-07-23 04:56:00,